UAEB8K LTFM-LTAI
Flight info
| Callsign | UAEB8K |
|---|---|
| Flight time | 0h 58m |
| Altitude | 31000 |
| Route | RATVU1D/35L RATVU UT35 BABSA |
| Aircraft | A359/H-SDE2E3GHIJ3J4J5LM1ORWXY/LB1D1 |
Departure
| Time | 2026-05-05 10:26 |
|---|---|
| Airport | İstanbul Airport (LTFM) |
Arrival
| Time | 2026-05-05 11:24 |
|---|---|
| Airport | Antalya International Airport (LTAI) |
| Time | Latitude | Longitude | Altitude | Speed | Heading |
|---|---|---|---|---|---|
| 2026-05-05 09:37 | 41.26777 | 28.73529 | 340 ft | 0 kts | 178° |
| 2026-05-05 10:12 | 41.26783 | 28.73529 | 337 ft | 1 kts | 178° |
| 2026-05-05 10:13 | 41.26790 | 28.73529 | 334 ft | 1 kts | 178° |
| 2026-05-05 10:13 | 41.26798 | 28.73528 | 334 ft | 1 kts | 178° |
| 2026-05-05 10:13 | 41.26805 | 28.73528 | 337 ft | 1 kts | 178° |
| 2026-05-05 10:13 | 41.26812 | 28.73528 | 337 ft | 1 kts | 178° |
| 2026-05-05 10:14 | 41.26820 | 28.73527 | 335 ft | 1 kts | 178° |
| 2026-05-05 10:14 | 41.26827 | 28.73527 | 336 ft | 1 kts | 178° |
| 2026-05-05 10:14 | 41.26834 | 28.73526 | 334 ft | 1 kts | 185° |
| 2026-05-05 10:14 | 41.26842 | 28.73526 | 334 ft | 1 kts | 197° |
| 2026-05-05 10:15 | 41.26849 | 28.73527 | 336 ft | 1 kts | 210° |
| 2026-05-05 10:15 | 41.26856 | 28.73531 | 335 ft | 1 kts | 224° |
| 2026-05-05 10:15 | 41.26862 | 28.73537 | 334 ft | 1 kts | 238° |
| 2026-05-05 10:15 | 41.26867 | 28.73545 | 334 ft | 1 kts | 251° |
| 2026-05-05 10:16 | 41.26870 | 28.73554 | 334 ft | 1 kts | 265° |
| 2026-05-05 10:16 | 41.26871 | 28.73556 | 334 ft | 0 kts | 267° |
| 2026-05-05 10:20 | 41.26871 | 28.73555 | 334 ft | 0 kts | 267° |
| 2026-05-05 10:20 | 41.26872 | 28.73506 | 334 ft | 10 kts | 271° |
| 2026-05-05 10:21 | 41.26867 | 28.73400 | 337 ft | 13 kts | 268° |
| 2026-05-05 10:21 | 41.26867 | 28.73268 | 337 ft | 16 kts | 270° |
| 2026-05-05 10:21 | 41.26866 | 28.73119 | 337 ft | 10 kts | 270° |
| 2026-05-05 10:21 | 41.26859 | 28.73018 | 338 ft | 11 kts | 248° |
| 2026-05-05 10:22 | 41.26789 | 28.73000 | 335 ft | 12 kts | 182° |
| 2026-05-05 10:22 | 41.26692 | 28.72996 | 335 ft | 16 kts | 181° |
| 2026-05-05 10:22 | 41.26666 | 28.72995 | 338 ft | 5 kts | 181° |
| 2026-05-05 10:22 | 41.26605 | 28.72974 | 337 ft | 11 kts | 210° |
| 2026-05-05 10:23 | 41.26597 | 28.72966 | 340 ft | 0 kts | 219° |
| 2026-05-05 10:23 | 41.26589 | 28.72947 | 334 ft | 7 kts | 238° |
| 2026-05-05 10:23 | 41.26584 | 28.72823 | 336 ft | 18 kts | 272° |
| 2026-05-05 10:23 | 41.26588 | 28.72647 | 336 ft | 9 kts | 272° |
| 2026-05-05 10:24 | 41.26589 | 28.72637 | 338 ft | 3 kts | 272° |
| 2026-05-05 10:24 | 41.26589 | 28.72611 | 339 ft | 5 kts | 272° |
| 2026-05-05 10:24 | 41.26596 | 28.72548 | 339 ft | 8 kts | 287° |
| 2026-05-05 10:24 | 41.26620 | 28.72513 | 337 ft | 2 kts | 322° |
| 2026-05-05 10:25 | 41.26636 | 28.72504 | 338 ft | 4 kts | 338° |
| 2026-05-05 10:25 | 41.26665 | 28.72501 | 335 ft | 2 kts | 355° |
| 2026-05-05 10:25 | 41.26666 | 28.72501 | 335 ft | 0 kts | 355° |
| 2026-05-05 10:25 | 41.26959 | 28.72521 | 339 ft | 100 kts | 4° |
| 2026-05-05 10:26 | 41.27947 | 28.72495 | 586 ft | 171 kts | 359° |
| 2026-05-05 10:26 | 41.29168 | 28.72521 | 1779 ft | 176 kts | 0° |
| 2026-05-05 10:26 | 41.30445 | 28.72505 | 2842 ft | 191 kts | 360° |
| 2026-05-05 10:26 | 41.31844 | 28.72509 | 3639 ft | 211 kts | 0° |
| 2026-05-05 10:27 | 41.33387 | 28.72510 | 4364 ft | 232 kts | 360° |
| 2026-05-05 10:27 | 41.35063 | 28.72512 | 5057 ft | 248 kts | 360° |
| 2026-05-05 10:27 | 41.36799 | 28.72516 | 6038 ft | 250 kts | 0° |
| 2026-05-05 10:27 | 41.38542 | 28.72516 | 7021 ft | 252 kts | 0° |
| 2026-05-05 10:28 | 41.40306 | 28.72515 | 7947 ft | 255 kts | 359° |
| 2026-05-05 10:28 | 41.42053 | 28.72051 | 8861 ft | 261 kts | 338° |
| 2026-05-05 10:28 | 41.43505 | 28.70572 | 9836 ft | 270 kts | 313° |
| 2026-05-05 10:28 | 41.44386 | 28.68288 | 10559 ft | 291 kts | 290° |
| 2026-05-05 10:29 | 41.44537 | 28.65460 | 10904 ft | 322 kts | 269° |
| 2026-05-05 10:29 | 41.44325 | 28.62384 | 11275 ft | 341 kts | 269° |
| 2026-05-05 10:29 | 41.44125 | 28.59247 | 12015 ft | 346 kts | 269° |
| 2026-05-05 10:29 | 41.43920 | 28.56024 | 12792 ft | 351 kts | 269° |
| 2026-05-05 10:30 | 41.43681 | 28.52760 | 13522 ft | 359 kts | 264° |
| 2026-05-05 10:30 | 41.42814 | 28.49588 | 14272 ft | 371 kts | 243° |
| 2026-05-05 10:30 | 41.41164 | 28.46919 | 15031 ft | 379 kts | 223° |
| 2026-05-05 10:30 | 41.38907 | 28.45069 | 15748 ft | 387 kts | 203° |
| 2026-05-05 10:31 | 41.36277 | 28.44259 | 16448 ft | 392 kts | 183° |
| 2026-05-05 10:31 | 41.33558 | 28.44601 | 17168 ft | 395 kts | 164° |
| 2026-05-05 10:31 | 41.31046 | 28.46054 | 17866 ft | 396 kts | 145° |
| 2026-05-05 10:31 | 41.28985 | 28.48460 | 18543 ft | 395 kts | 128° |
| 2026-05-05 10:32 | 41.27150 | 28.51216 | 19133 ft | 399 kts | 131° |
| 2026-05-05 10:32 | 41.25070 | 28.53678 | 19791 ft | 404 kts | 141° |
| 2026-05-05 10:32 | 41.22714 | 28.55740 | 20431 ft | 408 kts | 148° |
| 2026-05-05 10:32 | 41.20198 | 28.57520 | 21096 ft | 412 kts | 153° |
| 2026-05-05 10:33 | 41.17605 | 28.59170 | 21766 ft | 415 kts | 155° |
| 2026-05-05 10:33 | 41.14976 | 28.60788 | 22417 ft | 418 kts | 155° |
| 2026-05-05 10:33 | 41.12362 | 28.62400 | 23084 ft | 421 kts | 155° |
| 2026-05-05 10:33 | 41.09694 | 28.64062 | 23732 ft | 425 kts | 155° |
| 2026-05-05 10:34 | 41.07008 | 28.65747 | 24281 ft | 429 kts | 155° |
| 2026-05-05 10:34 | 41.04300 | 28.67453 | 24842 ft | 433 kts | 155° |
| 2026-05-05 10:34 | 41.01571 | 28.69174 | 25413 ft | 436 kts | 155° |
| 2026-05-05 10:34 | 40.98820 | 28.70908 | 25966 ft | 440 kts | 156° |
| 2026-05-05 10:35 | 40.96046 | 28.72656 | 26506 ft | 443 kts | 156° |
| 2026-05-05 10:35 | 40.93237 | 28.74424 | 27021 ft | 447 kts | 156° |
| 2026-05-05 10:35 | 40.90415 | 28.76198 | 27564 ft | 450 kts | 156° |
| 2026-05-05 10:35 | 40.87576 | 28.77980 | 28058 ft | 454 kts | 156° |
| 2026-05-05 10:36 | 40.84710 | 28.79778 | 28555 ft | 457 kts | 156° |
| 2026-05-05 10:36 | 40.81826 | 28.81585 | 29043 ft | 460 kts | 156° |
| 2026-05-05 10:36 | 40.78921 | 28.83404 | 29503 ft | 464 kts | 156° |
| 2026-05-05 10:36 | 40.76029 | 28.85213 | 29979 ft | 467 kts | 156° |
| 2026-05-05 10:37 | 40.73087 | 28.87050 | 30420 ft | 470 kts | 156° |
| 2026-05-05 10:37 | 40.70124 | 28.88899 | 30871 ft | 473 kts | 156° |
| 2026-05-05 10:37 | 40.67136 | 28.90761 | 31330 ft | 476 kts | 156° |
| 2026-05-05 10:37 | 40.64136 | 28.92629 | 31746 ft | 479 kts | 156° |
| 2026-05-05 10:38 | 40.61118 | 28.94508 | 32159 ft | 482 kts | 155° |
| 2026-05-05 10:38 | 40.58072 | 28.96402 | 32556 ft | 484 kts | 155° |
| 2026-05-05 10:38 | 40.55019 | 28.98299 | 32952 ft | 486 kts | 155° |
| 2026-05-05 10:38 | 40.51960 | 29.00197 | 33346 ft | 487 kts | 155° |
| 2026-05-05 10:39 | 40.48885 | 29.02104 | 33620 ft | 489 kts | 155° |
| 2026-05-05 10:39 | 40.45796 | 29.04017 | 33893 ft | 490 kts | 155° |
| 2026-05-05 10:39 | 40.42705 | 29.05930 | 34071 ft | 492 kts | 155° |
| 2026-05-05 10:39 | 40.39615 | 29.07838 | 34076 ft | 491 kts | 155° |
| 2026-05-05 10:40 | 40.33419 | 29.11661 | 34059 ft | 492 kts | 155° |
| 2026-05-05 10:40 | 40.27225 | 29.15475 | 34077 ft | 493 kts | 155° |
| 2026-05-05 10:41 | 40.21052 | 29.19268 | 34073 ft | 493 kts | 155° |
| 2026-05-05 10:41 | 40.14828 | 29.23084 | 34071 ft | 493 kts | 155° |
| 2026-05-05 10:42 | 40.05492 | 29.28794 | 34052 ft | 494 kts | 155° |
| 2026-05-05 10:43 | 39.99253 | 29.32601 | 34071 ft | 495 kts | 155° |
| 2026-05-05 10:43 | 39.93007 | 29.36406 | 34045 ft | 495 kts | 155° |
| 2026-05-05 10:44 | 39.86727 | 29.40115 | 34061 ft | 495 kts | 157° |
| 2026-05-05 10:44 | 39.80387 | 29.43533 | 34046 ft | 496 kts | 158° |
| 2026-05-05 10:45 | 39.74008 | 29.46991 | 34053 ft | 497 kts | 158° |
| 2026-05-05 10:45 | 39.67632 | 29.50480 | 34053 ft | 497 kts | 158° |
| 2026-05-05 10:46 | 39.61241 | 29.53935 | 34052 ft | 498 kts | 159° |
| 2026-05-05 10:46 | 39.54767 | 29.57132 | 34052 ft | 498 kts | 160° |
| 2026-05-05 10:47 | 39.48281 | 29.60325 | 34048 ft | 499 kts | 160° |
| 2026-05-05 10:47 | 39.41791 | 29.63550 | 34048 ft | 499 kts | 160° |
| 2026-05-05 10:48 | 39.35348 | 29.66754 | 34043 ft | 500 kts | 160° |
| 2026-05-05 10:48 | 39.28827 | 29.69989 | 34038 ft | 501 kts | 160° |
| 2026-05-05 10:49 | 39.22318 | 29.73212 | 34041 ft | 502 kts | 160° |
| 2026-05-05 10:49 | 39.16900 | 29.75889 | 34040 ft | 502 kts | 160° |
| 2026-05-05 10:50 | 39.10368 | 29.79111 | 34039 ft | 502 kts | 160° |
| 2026-05-05 10:50 | 39.03831 | 29.82329 | 34039 ft | 503 kts | 160° |
| 2026-05-05 10:51 | 38.97286 | 29.85545 | 34037 ft | 503 kts | 160° |
| 2026-05-05 10:51 | 38.90741 | 29.88753 | 34035 ft | 504 kts | 160° |
| 2026-05-05 10:52 | 38.84178 | 29.91927 | 34038 ft | 504 kts | 161° |
| 2026-05-05 10:52 | 38.77635 | 29.95021 | 34036 ft | 504 kts | 161° |
| 2026-05-05 10:53 | 38.71050 | 29.98138 | 34039 ft | 504 kts | 161° |
| 2026-05-05 10:53 | 38.64462 | 30.01259 | 34032 ft | 505 kts | 161° |
| 2026-05-05 10:54 | 38.57876 | 30.04373 | 33714 ft | 504 kts | 161° |
| 2026-05-05 10:54 | 38.54588 | 30.05926 | 33442 ft | 505 kts | 161° |
| 2026-05-05 10:54 | 38.51286 | 30.07483 | 33170 ft | 505 kts | 161° |
| 2026-05-05 10:54 | 38.47988 | 30.09037 | 32900 ft | 506 kts | 161° |
| 2026-05-05 10:55 | 38.44676 | 30.10595 | 32636 ft | 507 kts | 161° |
| 2026-05-05 10:55 | 38.41355 | 30.12156 | 32371 ft | 508 kts | 161° |
| 2026-05-05 10:55 | 38.38040 | 30.13713 | 32101 ft | 509 kts | 161° |
| 2026-05-05 10:55 | 38.34713 | 30.15274 | 31695 ft | 508 kts | 161° |
| 2026-05-05 10:56 | 38.31448 | 30.16801 | 30698 ft | 504 kts | 161° |
| 2026-05-05 10:56 | 38.28158 | 30.18316 | 29430 ft | 501 kts | 161° |
| 2026-05-05 10:56 | 38.24907 | 30.19803 | 28517 ft | 489 kts | 161° |
| 2026-05-05 10:56 | 38.21729 | 30.21258 | 27954 ft | 483 kts | 161° |
| 2026-05-05 10:57 | 38.18574 | 30.22707 | 27306 ft | 481 kts | 161° |
| 2026-05-05 10:57 | 38.15422 | 30.24155 | 26504 ft | 478 kts | 161° |
| 2026-05-05 10:57 | 38.12346 | 30.25570 | 25780 ft | 461 kts | 161° |
| 2026-05-05 10:57 | 38.09410 | 30.26921 | 25457 ft | 435 kts | 161° |
| 2026-05-05 10:58 | 38.06645 | 30.28192 | 25191 ft | 410 kts | 161° |
| 2026-05-05 10:58 | 38.04008 | 30.29402 | 24635 ft | 400 kts | 161° |
| 2026-05-05 10:58 | 38.01479 | 30.30851 | 24236 ft | 399 kts | 151° |
| 2026-05-05 10:58 | 37.99172 | 30.32808 | 24030 ft | 400 kts | 141° |
| 2026-05-05 10:59 | 37.97009 | 30.35025 | 23811 ft | 400 kts | 140° |
| 2026-05-05 10:59 | 37.94867 | 30.37191 | 23735 ft | 399 kts | 141° |
| 2026-05-05 10:59 | 37.92682 | 30.39366 | 23657 ft | 400 kts | 141° |
| 2026-05-05 10:59 | 37.90488 | 30.41532 | 23562 ft | 399 kts | 141° |
| 2026-05-05 11:00 | 37.88298 | 30.43683 | 23478 ft | 398 kts | 142° |
| 2026-05-05 11:00 | 37.85895 | 30.45396 | 23380 ft | 398 kts | 160° |
| 2026-05-05 11:00 | 37.83235 | 30.46109 | 23284 ft | 385 kts | 181° |
| 2026-05-05 11:00 | 37.80633 | 30.45732 | 23196 ft | 376 kts | 202° |
| 2026-05-05 11:01 | 37.78307 | 30.44300 | 23106 ft | 369 kts | 223° |
| 2026-05-05 11:01 | 37.76456 | 30.42129 | 23022 ft | 361 kts | 233° |
| 2026-05-05 11:01 | 37.74712 | 30.39843 | 22958 ft | 361 kts | 231° |
| 2026-05-05 11:01 | 37.72836 | 30.37713 | 22854 ft | 364 kts | 226° |
| 2026-05-05 11:02 | 37.70823 | 30.35758 | 22740 ft | 366 kts | 222° |
| 2026-05-05 11:02 | 37.68732 | 30.33914 | 22579 ft | 366 kts | 220° |
| 2026-05-05 11:02 | 37.66615 | 30.32129 | 22414 ft | 365 kts | 219° |
| 2026-05-05 11:02 | 37.64497 | 30.30361 | 22266 ft | 365 kts | 219° |
| 2026-05-05 11:03 | 37.62362 | 30.28642 | 22098 ft | 366 kts | 214° |
| 2026-05-05 11:03 | 37.59986 | 30.27410 | 21940 ft | 373 kts | 200° |
| 2026-05-05 11:03 | 37.57418 | 30.26867 | 21772 ft | 376 kts | 188° |
| 2026-05-05 11:03 | 37.54811 | 30.26583 | 21593 ft | 375 kts | 188° |
| 2026-05-05 11:04 | 37.52203 | 30.26263 | 21457 ft | 382 kts | 189° |
| 2026-05-05 11:04 | 37.49610 | 30.25916 | 21343 ft | 376 kts | 189° |
| 2026-05-05 11:04 | 37.47033 | 30.25559 | 21237 ft | 371 kts | 190° |
| 2026-05-05 11:04 | 37.44460 | 30.25196 | 21127 ft | 372 kts | 190° |
| 2026-05-05 11:05 | 37.41888 | 30.24832 | 21026 ft | 372 kts | 190° |
| 2026-05-05 11:05 | 37.39322 | 30.24472 | 20916 ft | 371 kts | 189° |
| 2026-05-05 11:05 | 37.36754 | 30.24114 | 20815 ft | 370 kts | 189° |
| 2026-05-05 11:05 | 37.34194 | 30.23759 | 20715 ft | 370 kts | 189° |
| 2026-05-05 11:06 | 37.31641 | 30.23407 | 20608 ft | 369 kts | 189° |
| 2026-05-05 11:06 | 37.29095 | 30.23057 | 20481 ft | 368 kts | 189° |
| 2026-05-05 11:06 | 37.26547 | 30.22707 | 20390 ft | 368 kts | 189° |
| 2026-05-05 11:06 | 37.24001 | 30.22360 | 20298 ft | 368 kts | 189° |
| 2026-05-05 11:07 | 37.21455 | 30.22011 | 20195 ft | 367 kts | 189° |
| 2026-05-05 11:07 | 37.18921 | 30.21660 | 20096 ft | 366 kts | 189° |
| 2026-05-05 11:07 | 37.16393 | 30.21370 | 19982 ft | 367 kts | 183° |
| 2026-05-05 11:07 | 37.13862 | 30.21866 | 19889 ft | 371 kts | 162° |
| 2026-05-05 11:08 | 37.11568 | 30.23295 | 19654 ft | 369 kts | 147° |
| 2026-05-05 11:08 | 37.09477 | 30.25159 | 19032 ft | 371 kts | 141° |
| 2026-05-05 11:08 | 37.07418 | 30.27151 | 18050 ft | 375 kts | 141° |
| 2026-05-05 11:08 | 37.05322 | 30.29140 | 16686 ft | 380 kts | 142° |
| 2026-05-05 11:09 | 37.03226 | 30.31042 | 15826 ft | 366 kts | 143° |
| 2026-05-05 11:09 | 37.01148 | 30.32871 | 14769 ft | 362 kts | 144° |
| 2026-05-05 11:09 | 36.99099 | 30.34644 | 13930 ft | 353 kts | 144° |
| 2026-05-05 11:09 | 36.97080 | 30.36384 | 13380 ft | 354 kts | 144° |
| 2026-05-05 11:10 | 36.95056 | 30.38131 | 13144 ft | 349 kts | 145° |
| 2026-05-05 11:10 | 36.93153 | 30.39770 | 13091 ft | 324 kts | 144° |
| 2026-05-05 11:10 | 36.91336 | 30.41335 | 12607 ft | 313 kts | 144° |
| 2026-05-05 11:10 | 36.89563 | 30.42866 | 12159 ft | 306 kts | 144° |
| 2026-05-05 11:11 | 36.87788 | 30.44401 | 12029 ft | 312 kts | 144° |
| 2026-05-05 11:11 | 36.86012 | 30.45935 | 12002 ft | 310 kts | 144° |
| 2026-05-05 11:11 | 36.84241 | 30.47467 | 11937 ft | 308 kts | 144° |
| 2026-05-05 11:11 | 36.82491 | 30.48975 | 11330 ft | 305 kts | 145° |
| 2026-05-05 11:12 | 36.80756 | 30.50460 | 10617 ft | 299 kts | 144° |
| 2026-05-05 11:12 | 36.79057 | 30.51916 | 9786 ft | 295 kts | 144° |
| 2026-05-05 11:12 | 36.77419 | 30.53341 | 9350 ft | 275 kts | 144° |
| 2026-05-05 11:12 | 36.75923 | 30.54643 | 9065 ft | 252 kts | 144° |
| 2026-05-05 11:13 | 36.74505 | 30.55869 | 8427 ft | 247 kts | 144° |
| 2026-05-05 11:13 | 36.73093 | 30.57084 | 7821 ft | 246 kts | 144° |
| 2026-05-05 11:13 | 36.71688 | 30.58297 | 7229 ft | 245 kts | 144° |
| 2026-05-05 11:13 | 36.70293 | 30.59498 | 6668 ft | 243 kts | 144° |
| 2026-05-05 11:14 | 36.68908 | 30.60691 | 6105 ft | 241 kts | 145° |
| 2026-05-05 11:14 | 36.67537 | 30.61866 | 5669 ft | 235 kts | 145° |
| 2026-05-05 11:14 | 36.66173 | 30.63034 | 5528 ft | 241 kts | 144° |
| 2026-05-05 11:14 | 36.64806 | 30.64206 | 5497 ft | 232 kts | 144° |
| 2026-05-05 11:15 | 36.63647 | 30.65478 | 5403 ft | 216 kts | 124° |
| 2026-05-05 11:15 | 36.63069 | 30.67137 | 5255 ft | 204 kts | 100° |
| 2026-05-05 11:15 | 36.62742 | 30.68809 | 5183 ft | 193 kts | 100° |
| 2026-05-05 11:15 | 36.62409 | 30.70390 | 5087 ft | 185 kts | 102° |
| 2026-05-05 11:16 | 36.62107 | 30.71887 | 4995 ft | 177 kts | 92° |
| 2026-05-05 11:16 | 36.62357 | 30.73346 | 4920 ft | 172 kts | 54° |
| 2026-05-05 11:16 | 36.63222 | 30.74253 | 4780 ft | 161 kts | 18° |
| 2026-05-05 11:16 | 36.64309 | 30.74570 | 4544 ft | 162 kts | 6° |
| 2026-05-05 11:17 | 36.65431 | 30.74758 | 4297 ft | 162 kts | 6° |
| 2026-05-05 11:17 | 36.66546 | 30.75000 | 4111 ft | 162 kts | 11° |
| 2026-05-05 11:17 | 36.67605 | 30.75434 | 4031 ft | 162 kts | 19° |
| 2026-05-05 11:17 | 36.68669 | 30.75959 | 3954 ft | 163 kts | 19° |
| 2026-05-05 11:18 | 36.69731 | 30.76375 | 3797 ft | 157 kts | 12° |
| 2026-05-05 11:18 | 36.70795 | 30.76611 | 3610 ft | 153 kts | 6° |
| 2026-05-05 11:18 | 36.71829 | 30.76762 | 3433 ft | 151 kts | 5° |
| 2026-05-05 11:18 | 36.72867 | 30.76910 | 3246 ft | 149 kts | 5° |
| 2026-05-05 11:19 | 36.73875 | 30.77048 | 3059 ft | 141 kts | 6° |
| 2026-05-05 11:19 | 36.74829 | 30.77184 | 2891 ft | 136 kts | 5° |
| 2026-05-05 11:19 | 36.75737 | 30.77306 | 2711 ft | 125 kts | 5° |
| 2026-05-05 11:19 | 36.76620 | 30.77429 | 2531 ft | 132 kts | 5° |
| 2026-05-05 11:20 | 36.77511 | 30.77550 | 2384 ft | 124 kts | 5° |
| 2026-05-05 11:20 | 36.78373 | 30.77672 | 2180 ft | 129 kts | 4° |
| 2026-05-05 11:20 | 36.79268 | 30.77778 | 2074 ft | 128 kts | 4° |
| 2026-05-05 11:20 | 36.80143 | 30.77894 | 1865 ft | 127 kts | 4° |
| 2026-05-05 11:21 | 36.81017 | 30.78025 | 1662 ft | 127 kts | 4° |
| 2026-05-05 11:21 | 36.81906 | 30.78159 | 1500 ft | 132 kts | 4° |
| 2026-05-05 11:21 | 36.82802 | 30.78276 | 1345 ft | 125 kts | 4° |
| 2026-05-05 11:21 | 36.83652 | 30.78385 | 1169 ft | 129 kts | 4° |
| 2026-05-05 11:22 | 36.84547 | 30.78516 | 1004 ft | 127 kts | 3° |
| 2026-05-05 11:22 | 36.85432 | 30.78632 | 831 ft | 129 kts | 3° |
| 2026-05-05 11:22 | 36.86314 | 30.78751 | 674 ft | 125 kts | 4° |
| 2026-05-05 11:22 | 36.87165 | 30.78879 | 489 ft | 119 kts | 4° |
| 2026-05-05 11:23 | 36.87986 | 30.78989 | 314 ft | 123 kts | 6° |
| 2026-05-05 11:23 | 36.88819 | 30.79108 | 214 ft | 118 kts | 6° |
| 2026-05-05 11:23 | 36.89489 | 30.79197 | 206 ft | 73 kts | 6° |
| 2026-05-05 11:23 | 36.89962 | 30.79262 | 206 ft | 63 kts | 6° |
| 2026-05-05 11:24 | 36.90360 | 30.79315 | 207 ft | 53 kts | 6° |
| 2026-05-05 11:24 | 36.90695 | 30.79347 | 211 ft | 44 kts | 7° |
| 2026-05-05 11:24 | 36.90947 | 30.79422 | 204 ft | 33 kts | 18° |
| 2026-05-05 11:24 | 36.91052 | 30.79420 | 203 ft | 4 kts | 351° |
| 2026-05-05 11:25 | 36.91124 | 30.79421 | 207 ft | 13 kts | 5° |
| 2026-05-05 11:25 | 36.91208 | 30.79447 | 207 ft | 9 kts | 29° |
| 2026-05-05 11:25 | 36.91228 | 30.79509 | 206 ft | 17 kts | 87° |
| 2026-05-05 11:25 | 36.91220 | 30.79590 | 202 ft | 2 kts | 97° |
| 2026-05-05 11:26 | 36.91217 | 30.79625 | 202 ft | 6 kts | 97° |
| 2026-05-05 11:26 | 36.91210 | 30.79698 | 203 ft | 11 kts | 97° |
| 2026-05-05 11:26 | 36.91199 | 30.79807 | 202 ft | 12 kts | 97° |
| 2026-05-05 11:26 | 36.91216 | 30.79877 | 208 ft | 9 kts | 59° |
| 2026-05-05 11:27 | 36.91268 | 30.79893 | 201 ft | 9 kts | 5° |
| 2026-05-05 11:27 | 36.91339 | 30.79900 | 200 ft | 12 kts | 5° |
| 2026-05-05 11:27 | 36.91429 | 30.79909 | 208 ft | 13 kts | 5° |
| 2026-05-05 11:27 | 36.91446 | 30.79911 | 199 ft | 0 kts | 5° |
| 2026-05-05 11:28 | 36.91462 | 30.79913 | 208 ft | 5 kts | 5° |
| 2026-05-05 11:28 | 36.91483 | 30.79923 | 209 ft | 1 kts | 24° |
| 2026-05-05 11:28 | 36.91502 | 30.79954 | 211 ft | 5 kts | 60° |
| 2026-05-05 11:28 | 36.91513 | 30.79996 | 203 ft | 3 kts | 71° |
| 2026-05-05 11:29 | 36.91515 | 30.80007 | 201 ft | 1 kts | 73° |
| 2026-05-05 11:29 | 36.91517 | 30.80014 | 199 ft | 1 kts | 73° |
| 2026-05-05 11:29 | 36.91518 | 30.80018 | 199 ft | 1 kts | 73° |
| 2026-05-05 11:29 | 36.91519 | 30.80023 | 200 ft | 0 kts | 73° |